sensor_id;sensor_type;location;lat;lon;timestamp;temperature;humidity
25937;DHT22;13733;51.178;4.450;2022-08-19T00:00:24;21.50;99.90
25937;DHT22;13733;51.178;4.450;2022-08-19T00:02:50;21.40;99.90
25937;DHT22;13733;51.178;4.450;2022-08-19T00:05:17;21.30;99.90
25937;DHT22;13733;51.178;4.450;2022-08-19T00:07:43;21.30;99.90
25937;DHT22;13733;51.178;4.450;2022-08-19T00:10:12;21.20;99.90
25937;DHT22;13733;51.178;4.450;2022-08-19T00:12:38;21.10;99.90
25937;DHT22;13733;51.178;4.450;2022-08-19T00:15:08;21.00;99.90
25937;DHT22;13733;51.178;4.450;2022-08-19T00:17:38;20.90;99.90
25937;DHT22;13733;51.178;4.450;2022-08-19T00:20:05;20.90;99.90
25937;DHT22;13733;51.178;4.450;2022-08-19T00:22:31;20.90;99.90
25937;DHT22;13733;51.178;4.450;2022-08-19T00:24:56;20.90;99.90
25937;DHT22;13733;51.178;4.450;2022-08-19T00:27:23;20.90;99.90
25937;DHT22;13733;51.178;4.450;2022-08-19T00:29:49;20.80;99.90
25937;DHT22;13733;51.178;4.450;2022-08-19T00:32:15;20.80;99.90
25937;DHT22;13733;51.178;4.450;2022-08-19T00:34:40;20.80;99.90
25937;DHT22;13733;51.178;4.450;2022-08-19T00:37:06;20.70;99.90
25937;DHT22;13733;51.178;4.450;2022-08-19T00:39:32;20.70;99.90
25937;DHT22;13733;51.178;4.450;2022-08-19T00:41:58;20.70;99.90
25937;DHT22;13733;51.178;4.450;2022-08-19T00:44:26;20.70;99.90
25937;DHT22;13733;51.178;4.450;2022-08-19T00:46:54;20.70;99.90
25937;DHT22;13733;51.178;4.450;2022-08-19T00:49:30;20.90;99.90
25937;DHT22;13733;51.178;4.450;2022-08-19T00:52:14;20.80;99.90
25937;DHT22;13733;51.178;4.450;2022-08-19T00:54:41;20.70;99.90
25937;DHT22;13733;51.178;4.450;2022-08-19T00:57:10;20.80;99.90
25937;DHT22;13733;51.178;4.450;2022-08-19T00:59:40;20.70;99.90
25937;DHT22;13733;51.178;4.450;2022-08-19T01:02:06;20.70;99.90
25937;DHT22;13733;51.178;4.450;2022-08-19T01:04:32;20.60;99.90
25937;DHT22;13733;51.178;4.450;2022-08-19T01:06:58;20.70;99.90
25937;DHT22;13733;51.178;4.450;2022-08-19T01:09:25;20.80;99.90
25937;DHT22;13733;51.178;4.450;2022-08-19T01:11:51;20.80;99.90
25937;DHT22;13733;51.178;4.450;2022-08-19T01:14:18;20.70;99.90
25937;DHT22;13733;51.178;4.450;2022-08-19T01:16:45;20.70;99.90
25937;DHT22;13733;51.178;4.450;2022-08-19T01:19:27;20.70;99.90
25937;DHT22;13733;51.178;4.450;2022-08-19T01:22:00;20.70;99.90
25937;DHT22;13733;51.178;4.450;2022-08-19T01:24:27;20.60;99.90
25937;DHT22;13733;51.178;4.450;2022-08-19T01:26:53;20.40;99.90
25937;DHT22;13733;51.178;4.450;2022-08-19T01:29:20;20.40;99.90
25937;DHT22;13733;51.178;4.450;2022-08-19T01:31:46;20.40;99.90
25937;DHT22;13733;51.178;4.450;2022-08-19T01:34:11;20.40;99.90
25937;DHT22;13733;51.178;4.450;2022-08-19T01:36:42;20.50;99.90
25937;DHT22;13733;51.178;4.450;2022-08-19T01:39:11;20.60;99.90
25937;DHT22;13733;51.178;4.450;2022-08-19T01:41:37;20.40;99.90
25937;DHT22;13733;51.178;4.450;2022-08-19T01:44:04;20.40;99.90
25937;DHT22;13733;51.178;4.450;2022-08-19T01:46:31;20.30;99.90
25937;DHT22;13733;51.178;4.450;2022-08-19T01:48:58;20.30;99.90
25937;DHT22;13733;51.178;4.450;2022-08-19T01:51:24;20.30;99.90
25937;DHT22;13733;51.178;4.450;2022-08-19T01:53:51;20.00;99.90
25937;DHT22;13733;51.178;4.450;2022-08-19T01:56:18;19.90;99.90
25937;DHT22;13733;51.178;4.450;2022-08-19T01:58:51;19.80;99.90
25937;DHT22;13733;51.178;4.450;2022-08-19T02:01:18;19.90;99.90
25937;DHT22;13733;51.178;4.450;2022-08-19T02:03:44;20.00;99.90
25937;DHT22;13733;51.178;4.450;2022-08-19T02:06:11;20.10;99.90
25937;DHT22;13733;51.178;4.450;2022-08-19T02:08:38;20.20;99.90
25937;DHT22;13733;51.178;4.450;2022-08-19T02:11:05;20.10;99.90
25937;DHT22;13733;51.178;4.450;2022-08-19T02:13:31;20.10;99.90
25937;DHT22;13733;51.178;4.450;2022-08-19T02:15:57;19.90;99.90
25937;DHT22;13733;51.178;4.450;2022-08-19T02:18:23;19.80;99.90
25937;DHT22;13733;51.178;4.450;2022-08-19T02:20:49;19.60;99.90
25937;DHT22;13733;51.178;4.450;2022-08-19T02:23:16;19.50;99.90
25937;DHT22;13733;51.178;4.450;2022-08-19T02:25:48;19.50;99.90
25937;DHT22;13733;51.178;4.450;2022-08-19T02:28:14;19.40;99.90
25937;DHT22;13733;51.178;4.450;2022-08-19T02:30:41;19.30;99.90
25937;DHT22;13733;51.178;4.450;2022-08-19T02:33:07;19.40;99.90
25937;DHT22;13733;51.178;4.450;2022-08-19T02:35:33;19.50;99.90
25937;DHT22;13733;51.178;4.450;2022-08-19T02:37:59;19.60;99.90
25937;DHT22;13733;51.178;4.450;2022-08-19T02:40:49;19.60;99.90
25937;DHT22;13733;51.178;4.450;2022-08-19T02:43:17;19.70;99.90
25937;DHT22;13733;51.178;4.450;2022-08-19T02:45:42;19.50;99.90
25937;DHT22;13733;51.178;4.450;2022-08-19T02:48:08;19.40;99.90
25937;DHT22;13733;51.178;4.450;2022-08-19T02:50:37;19.40;99.90
25937;DHT22;13733;51.178;4.450;2022-08-19T02:53:05;19.50;99.90
25937;DHT22;13733;51.178;4.450;2022-08-19T02:55:32;19.80;99.90
25937;DHT22;13733;51.178;4.450;2022-08-19T02:57:58;19.70;99.90
25937;DHT22;13733;51.178;4.450;2022-08-19T03:00:25;19.50;99.90
25937;DHT22;13733;51.178;4.450;2022-08-19T03:02:52;19.40;99.90
25937;DHT22;13733;51.178;4.450;2022-08-19T03:05:18;19.40;99.90
25937;DHT22;13733;51.178;4.450;2022-08-19T03:07:44;19.40;99.90
25937;DHT22;13733;51.178;4.450;2022-08-19T03:10:10;19.40;99.90
25937;DHT22;13733;51.178;4.450;2022-08-19T03:12:37;19.40;99.90
25937;DHT22;13733;51.178;4.450;2022-08-19T03:15:05;19.30;99.90
25937;DHT22;13733;51.178;4.450;2022-08-19T03:17:33;19.30;99.90
25937;DHT22;13733;51.178;4.450;2022-08-19T03:19:59;19.20;99.90
25937;DHT22;13733;51.178;4.450;2022-08-19T03:22:25;19.10;99.90
25937;DHT22;13733;51.178;4.450;2022-08-19T03:24:51;19.20;99.90
25937;DHT22;13733;51.178;4.450;2022-08-19T03:27:16;19.20;99.90
25937;DHT22;13733;51.178;4.450;2022-08-19T03:29:43;19.10;99.90
25937;DHT22;13733;51.178;4.450;2022-08-19T03:32:10;19.20;99.90
25937;DHT22;13733;51.178;4.450;2022-08-19T03:34:37;19.20;99.90
25937;DHT22;13733;51.178;4.450;2022-08-19T03:37:07;19.20;99.90
25937;DHT22;13733;51.178;4.450;2022-08-19T03:39:34;19.00;99.90
25937;DHT22;13733;51.178;4.450;2022-08-19T03:42:00;18.80;99.90
25937;DHT22;13733;51.178;4.450;2022-08-19T03:44:29;18.70;99.90
25937;DHT22;13733;51.178;4.450;2022-08-19T03:46:57;18.60;99.90
25937;DHT22;13733;51.178;4.450;2022-08-19T03:49:26;18.60;99.90
25937;DHT22;13733;51.178;4.450;2022-08-19T03:51:53;18.70;99.90
25937;DHT22;13733;51.178;4.450;2022-08-19T03:54:21;18.80;99.90
25937;DHT22;13733;51.178;4.450;2022-08-19T03:56:52;18.90;99.90
25937;DHT22;13733;51.178;4.450;2022-08-19T03:59:30;18.70;99.90
25937;DHT22;13733;51.178;4.450;2022-08-19T04:02:00;18.50;99.90
25937;DHT22;13733;51.178;4.450;2022-08-19T04:04:27;18.40;99.90
25937;DHT22;13733;51.178;4.450;2022-08-19T04:06:54;18.40;99.90
25937;DHT22;13733;51.178;4.450;2022-08-19T04:09:20;18.40;99.90
25937;DHT22;13733;51.178;4.450;2022-08-19T04:11:49;18.50;99.90
25937;DHT22;13733;51.178;4.450;2022-08-19T04:14:21;18.40;99.90
25937;DHT22;13733;51.178;4.450;2022-08-19T04:16:47;18.60;99.90
25937;DHT22;13733;51.178;4.450;2022-08-19T04:19:15;18.50;99.90
25937;DHT22;13733;51.178;4.450;2022-08-19T04:21:44;18.70;99.90
25937;DHT22;13733;51.178;4.450;2022-08-19T04:24:11;18.70;99.90
25937;DHT22;13733;51.178;4.450;2022-08-19T04:26:37;18.70;99.90
25937;DHT22;13733;51.178;4.450;2022-08-19T04:29:13;18.60;99.90
25937;DHT22;13733;51.178;4.450;2022-08-19T04:31:40;18.70;99.90
25937;DHT22;13733;51.178;4.450;2022-08-19T04:34:08;18.70;99.90
25937;DHT22;13733;51.178;4.450;2022-08-19T04:36:38;18.60;99.90
25937;DHT22;13733;51.178;4.450;2022-08-19T04:39:11;18.60;99.90
25937;DHT22;13733;51.178;4.450;2022-08-19T04:41:37;18.50;99.90
25937;DHT22;13733;51.178;4.450;2022-08-19T04:44:22;18.40;99.90
25937;DHT22;13733;51.178;4.450;2022-08-19T04:46:49;18.30;99.90
25937;DHT22;13733;51.178;4.450;2022-08-19T04:49:18;18.40;99.90
25937;DHT22;13733;51.178;4.450;2022-08-19T04:51:45;18.50;99.90
25937;DHT22;13733;51.178;4.450;2022-08-19T04:54:13;18.50;99.90
25937;DHT22;13733;51.178;4.450;2022-08-19T04:56:40;18.50;99.90
25937;DHT22;13733;51.178;4.450;2022-08-19T04:59:06;18.50;99.90
25937;DHT22;13733;51.178;4.450;2022-08-19T05:01:34;18.30;99.90
25937;DHT22;13733;51.178;4.450;2022-08-19T05:04:04;18.30;99.90
25937;DHT22;13733;51.178;4.450;2022-08-19T05:06:31;18.20;99.90
25937;DHT22;13733;51.178;4.450;2022-08-19T05:09:00;18.10;99.90
25937;DHT22;13733;51.178;4.450;2022-08-19T05:11:28;18.00;99.90
25937;DHT22;13733;51.178;4.450;2022-08-19T05:13:55;18.10;99.90
25937;DHT22;13733;51.178;4.450;2022-08-19T05:16:22;18.20;99.90
25937;DHT22;13733;51.178;4.450;2022-08-19T05:18:48;18.30;99.90
25937;DHT22;13733;51.178;4.450;2022-08-19T05:21:33;18.40;99.90
25937;DHT22;13733;51.178;4.450;2022-08-19T05:24:19;18.20;99.90
25937;DHT22;13733;51.178;4.450;2022-08-19T05:26:48;18.30;99.90
25937;DHT22;13733;51.178;4.450;2022-08-19T05:29:17;18.20;99.90
25937;DHT22;13733;51.178;4.450;2022-08-19T05:31:44;18.10;99.90
25937;DHT22;13733;51.178;4.450;2022-08-19T05:34:10;18.00;99.90
25937;DHT22;13733;51.178;4.450;2022-08-19T05:36:40;18.10;99.90
25937;DHT22;13733;51.178;4.450;2022-08-19T05:39:07;18.20;99.90
25937;DHT22;13733;51.178;4.450;2022-08-19T05:41:33;18.20;99.90
25937;DHT22;13733;51.178;4.450;2022-08-19T05:44:03;18.20;99.90
25937;DHT22;13733;51.178;4.450;2022-08-19T05:46:32;18.10;99.90
25937;DHT22;13733;51.178;4.450;2022-08-19T05:48:58;18.20;99.90
25937;DHT22;13733;51.178;4.450;2022-08-19T05:51:24;18.20;99.90
25937;DHT22;13733;51.178;4.450;2022-08-19T05:53:52;18.30;99.90
25937;DHT22;13733;51.178;4.450;2022-08-19T05:56:19;18.30;99.90
25937;DHT22;13733;51.178;4.450;2022-08-19T05:58:45;18.50;99.90
25937;DHT22;13733;51.178;4.450;2022-08-19T06:01:15;18.90;99.90
25937;DHT22;13733;51.178;4.450;2022-08-19T06:03:42;19.20;99.90
25937;DHT22;13733;51.178;4.450;2022-08-19T06:06:10;19.10;99.90
25937;DHT22;13733;51.178;4.450;2022-08-19T06:08:37;19.00;69.50
25937;DHT22;13733;51.178;4.450;2022-08-19T06:11:22;19.10;69.10
25937;DHT22;13733;51.178;4.450;2022-08-19T06:13:53;19.00;68.70
25937;DHT22;13733;51.178;4.450;2022-08-19T06:16:20;19.00;70.00
25937;DHT22;13733;51.178;4.450;2022-08-19T06:18:51;19.00;69.40
25937;DHT22;13733;51.178;4.450;2022-08-19T06:21:22;19.20;69.30
25937;DHT22;13733;51.178;4.450;2022-08-19T06:23:48;19.30;64.50
25937;DHT22;13733;51.178;4.450;2022-08-19T06:26:16;19.50;61.60
25937;DHT22;13733;51.178;4.450;2022-08-19T06:28:42;19.50;61.90
25937;DHT22;13733;51.178;4.450;2022-08-19T06:31:16;19.60;60.70
25937;DHT22;13733;51.178;4.450;2022-08-19T06:33:43;19.60;58.50
25937;DHT22;13733;51.178;4.450;2022-08-19T06:36:24;19.60;56.10
25937;DHT22;13733;51.178;4.450;2022-08-19T06:38:55;19.70;58.30
25937;DHT22;13733;51.178;4.450;2022-08-19T06:41:24;19.80;54.80
25937;DHT22;13733;51.178;4.450;2022-08-19T06:43:50;19.70;57.50
25937;DHT22;13733;51.178;4.450;2022-08-19T06:46:17;19.90;56.60
25937;DHT22;13733;51.178;4.450;2022-08-19T06:48:44;19.90;54.80
25937;DHT22;13733;51.178;4.450;2022-08-19T06:51:10;20.20;51.10
25937;DHT22;13733;51.178;4.450;2022-08-19T06:53:36;20.10;50.10
25937;DHT22;13733;51.178;4.450;2022-08-19T06:56:02;20.30;46.20
25937;DHT22;13733;51.178;4.450;2022-08-19T06:58:29;20.30;45.20
25937;DHT22;13733;51.178;4.450;2022-08-19T07:01:02;20.20;46.80
25937;DHT22;13733;51.178;4.450;2022-08-19T07:03:33;20.40;45.80
25937;DHT22;13733;51.178;4.450;2022-08-19T07:06:07;20.40;44.50
25937;DHT22;13733;51.178;4.450;2022-08-19T07:08:35;20.40;45.90
25937;DHT22;13733;51.178;4.450;2022-08-19T07:11:05;20.30;48.70
25937;DHT22;13733;51.178;4.450;2022-08-19T07:13:33;20.50;47.50
25937;DHT22;13733;51.178;4.450;2022-08-19T07:16:06;20.80;41.00
25937;DHT22;13733;51.178;4.450;2022-08-19T07:18:33;20.90;35.00
25937;DHT22;13733;51.178;4.450;2022-08-19T07:21:10;20.80;39.00
25937;DHT22;13733;51.178;4.450;2022-08-19T07:23:38;20.50;46.80
25937;DHT22;13733;51.178;4.450;2022-08-19T07:26:15;20.30;53.70
25937;DHT22;13733;51.178;4.450;2022-08-19T07:28:41;20.50;51.20
25937;DHT22;13733;51.178;4.450;2022-08-19T07:31:13;20.50;51.80
25937;DHT22;13733;51.178;4.450;2022-08-19T07:33:40;20.40;53.70
25937;DHT22;13733;51.178;4.450;2022-08-19T07:36:08;20.40;56.30
25937;DHT22;13733;51.178;4.450;2022-08-19T07:38:37;20.80;50.90
25937;DHT22;13733;51.178;4.450;2022-08-19T07:41:03;21.00;45.90
25937;DHT22;13733;51.178;4.450;2022-08-19T07:43:29;21.10;42.30
25937;DHT22;13733;51.178;4.450;2022-08-19T07:45:56;21.30;39.40
25937;DHT22;13733;51.178;4.450;2022-08-19T07:48:23;21.10;43.60
25937;DHT22;13733;51.178;4.450;2022-08-19T07:50:55;21.20;44.20
25937;DHT22;13733;51.178;4.450;2022-08-19T07:53:23;21.30;43.40
25937;DHT22;13733;51.178;4.450;2022-08-19T07:55:50;21.30;43.90
25937;DHT22;13733;51.178;4.450;2022-08-19T07:58:20;21.50;39.70
25937;DHT22;13733;51.178;4.450;2022-08-19T08:00:48;21.40;43.80
25937;DHT22;13733;51.178;4.450;2022-08-19T08:03:17;21.50;41.20
25937;DHT22;13733;51.178;4.450;2022-08-19T08:05:43;21.60;39.80
25937;DHT22;13733;51.178;4.450;2022-08-19T08:08:28;21.70;38.10
25937;DHT22;13733;51.178;4.450;2022-08-19T08:10:57;21.90;30.40
25937;DHT22;13733;51.178;4.450;2022-08-19T08:13:24;21.90;31.20
25937;DHT22;13733;51.178;4.450;2022-08-19T08:15:49;21.90;35.70
25937;DHT22;13733;51.178;4.450;2022-08-19T08:18:15;22.00;31.00
25937;DHT22;13733;51.178;4.450;2022-08-19T08:20:41;22.00;30.00
25937;DHT22;13733;51.178;4.450;2022-08-19T08:23:07;22.00;30.20
25937;DHT22;13733;51.178;4.450;2022-08-19T08:25:49;22.10;29.80
25937;DHT22;13733;51.178;4.450;2022-08-19T08:28:16;21.90;32.70
25937;DHT22;13733;51.178;4.450;2022-08-19T08:30:42;21.90;38.20
25937;DHT22;13733;51.178;4.450;2022-08-19T08:33:09;22.10;37.00
25937;DHT22;13733;51.178;4.450;2022-08-19T08:35:35;22.20;35.10
25937;DHT22;13733;51.178;4.450;2022-08-19T08:38:03;22.40;29.90
25937;DHT22;13733;51.178;4.450;2022-08-19T08:40:38;22.40;29.90
25937;DHT22;13733;51.178;4.450;2022-08-19T08:43:24;22.70;24.50
25937;DHT22;13733;51.178;4.450;2022-08-19T08:46:05;22.80;22.10
25937;DHT22;13733;51.178;4.450;2022-08-19T08:48:39;22.90;19.30
25937;DHT22;13733;51.178;4.450;2022-08-19T08:51:25;22.90;20.10
25937;DHT22;13733;51.178;4.450;2022-08-19T08:53:56;23.00;18.30
25937;DHT22;13733;51.178;4.450;2022-08-19T08:56:22;22.50;29.20
25937;DHT22;13733;51.178;4.450;2022-08-19T08:58:58;22.50;29.00
25937;DHT22;13733;51.178;4.450;2022-08-19T09:01:25;22.50;28.50
25937;DHT22;13733;51.178;4.450;2022-08-19T09:03:51;22.50;28.10
25937;DHT22;13733;51.178;4.450;2022-08-19T09:06:32;22.10;40.10
25937;DHT22;13733;51.178;4.450;2022-08-19T09:14:37;22.10;40.80
25937;DHT22;13733;51.178;4.450;2022-08-19T09:17:08;22.40;34.60
25937;DHT22;13733;51.178;4.450;2022-08-19T09:22:36;22.80;26.90
25937;DHT22;13733;51.178;4.450;2022-08-19T09:25:03;23.00;20.30
25937;DHT22;13733;51.178;4.450;2022-08-19T09:27:31;23.10;15.60
25937;DHT22;13733;51.178;4.450;2022-08-19T09:29:58;23.10;16.80
25937;DHT22;13733;51.178;4.450;2022-08-19T09:32:24;22.90;22.30
25937;DHT22;13733;51.178;4.450;2022-08-19T09:34:51;23.10;20.90
25937;DHT22;13733;51.178;4.450;2022-08-19T09:37:20;22.80;23.90
25937;DHT22;13733;51.178;4.450;2022-08-19T09:39:47;22.70;27.50
25937;DHT22;13733;51.178;4.450;2022-08-19T09:42:13;22.50;33.80
25937;DHT22;13733;51.178;4.450;2022-08-19T09:44:40;22.50;33.80
25937;DHT22;13733;51.178;4.450;2022-08-19T09:47:08;22.90;26.30
25937;DHT22;13733;51.178;4.450;2022-08-19T09:49:34;22.90;24.80
25937;DHT22;13733;51.178;4.450;2022-08-19T09:52:00;23.00;24.40
25937;DHT22;13733;51.178;4.450;2022-08-19T09:54:26;23.00;24.20
25937;DHT22;13733;51.178;4.450;2022-08-19T09:56:53;23.00;22.80
25937;DHT22;13733;51.178;4.450;2022-08-19T09:59:19;23.00;22.30
25937;DHT22;13733;51.178;4.450;2022-08-19T10:01:46;22.90;24.20
25937;DHT22;13733;51.178;4.450;2022-08-19T10:04:11;22.90;24.80
25937;DHT22;13733;51.178;4.450;2022-08-19T10:06:39;22.90;24.60
25937;DHT22;13733;51.178;4.450;2022-08-19T10:09:08;23.00;24.00
25937;DHT22;13733;51.178;4.450;2022-08-19T10:11:35;22.90;24.70
25937;DHT22;13733;51.178;4.450;2022-08-19T10:14:03;23.10;23.00
25937;DHT22;13733;51.178;4.450;2022-08-19T10:16:31;23.30;22.40
25937;DHT22;13733;51.178;4.450;2022-08-19T10:18:58;23.40;18.10
25937;DHT22;13733;51.178;4.450;2022-08-19T10:21:28;23.60;11.10
25937;DHT22;13733;51.178;4.450;2022-08-19T10:23:57;23.70;9.30
25937;DHT22;13733;51.178;4.450;2022-08-19T10:26:26;23.60;9.90
25937;DHT22;13733;51.178;4.450;2022-08-19T10:28:53;23.60;13.80
25937;DHT22;13733;51.178;4.450;2022-08-19T10:31:27;23.50;15.00
25937;DHT22;13733;51.178;4.450;2022-08-19T10:33:53;23.40;19.30
25937;DHT22;13733;51.178;4.450;2022-08-19T10:36:30;23.60;14.10
25937;DHT22;13733;51.178;4.450;2022-08-19T10:39:00;23.70;13.00
25937;DHT22;13733;51.178;4.450;2022-08-19T10:41:38;23.70;10.20
25937;DHT22;13733;51.178;4.450;2022-08-19T10:44:07;23.70;9.20
25937;DHT22;13733;51.178;4.450;2022-08-19T10:46:36;24.00;7.40
25937;DHT22;13733;51.178;4.450;2022-08-19T10:49:04;23.90;5.70
25937;DHT22;13733;51.178;4.450;2022-08-19T10:51:31;24.00;5.80
25937;DHT22;13733;51.178;4.450;2022-08-19T10:54:16;24.10;3.80
25937;DHT22;13733;51.178;4.450;2022-08-19T10:56:42;24.10;5.20
25937;DHT22;13733;51.178;4.450;2022-08-19T10:59:25;23.90;6.10
25937;DHT22;13733;51.178;4.450;2022-08-19T11:01:58;24.10;2.10
25937;DHT22;13733;51.178;4.450;2022-08-19T11:04:24;24.10;2.80
25937;DHT22;13733;51.178;4.450;2022-08-19T11:06:49;24.20;1.40
25937;DHT22;13733;51.178;4.450;2022-08-19T11:09:18;24.10;2.60
25937;DHT22;13733;51.178;4.450;2022-08-19T11:11:44;24.20;1.00
25937;DHT22;13733;51.178;4.450;2022-08-19T11:14:12;24.10;2.80
25937;DHT22;13733;51.178;4.450;2022-08-19T11:16:40;24.30;3.30
25937;DHT22;13733;51.178;4.450;2022-08-19T11:19:09;24.50;1.00
25937;DHT22;13733;51.178;4.450;2022-08-19T11:21:38;24.80;1.00
25937;DHT22;13733;51.178;4.450;2022-08-19T11:24:08;25.00;1.00
25937;DHT22;13733;51.178;4.450;2022-08-19T11:26:36;25.00;1.00
25937;DHT22;13733;51.178;4.450;2022-08-19T11:29:04;25.00;1.00
25937;DHT22;13733;51.178;4.450;2022-08-19T11:31:34;24.90;1.00
25937;DHT22;13733;51.178;4.450;2022-08-19T11:34:03;25.10;1.00
25937;DHT22;13733;51.178;4.450;2022-08-19T11:36:30;25.10;1.00
25937;DHT22;13733;51.178;4.450;2022-08-19T11:38:58;25.00;1.00
25937;DHT22;13733;51.178;4.450;2022-08-19T11:41:25;24.70;1.00
25937;DHT22;13733;51.178;4.450;2022-08-19T11:43:53;24.90;1.00
25937;DHT22;13733;51.178;4.450;2022-08-19T11:46:22;25.40;1.00
25937;DHT22;13733;51.178;4.450;2022-08-19T11:48:49;25.70;1.00
25937;DHT22;13733;51.178;4.450;2022-08-19T11:51:19;25.70;1.00
25937;DHT22;13733;51.178;4.450;2022-08-19T11:53:45;26.00;1.00
25937;DHT22;13733;51.178;4.450;2022-08-19T11:56:12;26.20;1.00
25937;DHT22;13733;51.178;4.450;2022-08-19T11:58:39;26.50;1.00
25937;DHT22;13733;51.178;4.450;2022-08-19T12:01:11;26.40;1.00
25937;DHT22;13733;51.178;4.450;2022-08-19T12:03:38;25.80;1.00
25937;DHT22;13733;51.178;4.450;2022-08-19T12:06:06;26.00;1.00
25937;DHT22;13733;51.178;4.450;2022-08-19T12:08:32;26.10;1.00
25937;DHT22;13733;51.178;4.450;2022-08-19T12:10:58;26.00;1.00
25937;DHT22;13733;51.178;4.450;2022-08-19T12:13:27;26.30;1.00
25937;DHT22;13733;51.178;4.450;2022-08-19T12:15:53;26.70;1.00
25937;DHT22;13733;51.178;4.450;2022-08-19T12:18:19;27.00;1.00
25937;DHT22;13733;51.178;4.450;2022-08-19T12:20:45;27.30;1.00
25937;DHT22;13733;51.178;4.450;2022-08-19T12:23:13;27.30;1.00
25937;DHT22;13733;51.178;4.450;2022-08-19T12:25:45;27.50;1.00
25937;DHT22;13733;51.178;4.450;2022-08-19T12:28:19;27.70;1.00
25937;DHT22;13733;51.178;4.450;2022-08-19T12:30:46;27.90;1.00
25937;DHT22;13733;51.178;4.450;2022-08-19T12:33:12;28.30;1.00
25937;DHT22;13733;51.178;4.450;2022-08-19T12:35:46;28.50;99.90
25937;DHT22;13733;51.178;4.450;2022-08-19T12:38:13;28.60;1.00
25937;DHT22;13733;51.178;4.450;2022-08-19T12:40:40;28.80;1.00
25937;DHT22;13733;51.178;4.450;2022-08-19T12:43:07;28.90;1.00
25937;DHT22;13733;51.178;4.450;2022-08-19T12:45:34;28.40;17.50
25937;DHT22;13733;51.178;4.450;2022-08-19T12:48:00;28.10;99.90
25937;DHT22;13733;51.178;4.450;2022-08-19T12:50:25;28.20;99.90
25937;DHT22;13733;51.178;4.450;2022-08-19T12:52:51;28.30;99.90
25937;DHT22;13733;51.178;4.450;2022-08-19T12:55:18;27.80;99.90
25937;DHT22;13733;51.178;4.450;2022-08-19T12:57:44;27.70;99.90
25937;DHT22;13733;51.178;4.450;2022-08-19T13:00:16;27.70;99.90
25937;DHT22;13733;51.178;4.450;2022-08-19T13:02:46;27.40;99.90
25937;DHT22;13733;51.178;4.450;2022-08-19T13:05:15;27.10;1.00
25937;DHT22;13733;51.178;4.450;2022-08-19T13:07:41;27.10;99.90
25937;DHT22;13733;51.178;4.450;2022-08-19T13:10:11;26.90;1.00
25937;DHT22;13733;51.178;4.450;2022-08-19T13:12:38;26.90;1.00
25937;DHT22;13733;51.178;4.450;2022-08-19T13:15:04;26.90;1.00
25937;DHT22;13733;51.178;4.450;2022-08-19T13:17:31;26.90;1.00
25937;DHT22;13733;51.178;4.450;2022-08-19T13:19:58;27.20;99.90
25937;DHT22;13733;51.178;4.450;2022-08-19T13:22:24;27.20;99.90
25937;DHT22;13733;51.178;4.450;2022-08-19T13:24:50;27.20;99.90
25937;DHT22;13733;51.178;4.450;2022-08-19T13:27:16;27.20;99.90
25937;DHT22;13733;51.178;4.450;2022-08-19T13:29:42;27.10;99.90
25937;DHT22;13733;51.178;4.450;2022-08-19T13:32:26;27.20;99.90
25937;DHT22;13733;51.178;4.450;2022-08-19T13:35:12;27.90;99.90
25937;DHT22;13733;51.178;4.450;2022-08-19T13:37:38;29.40;94.10
25937;DHT22;13733;51.178;4.450;2022-08-19T13:40:21;29.30;1.00
25937;DHT22;13733;51.178;4.450;2022-08-19T13:42:51;29.50;99.90
25937;DHT22;13733;51.178;4.450;2022-08-19T13:45:20;30.00;99.90
25937;DHT22;13733;51.178;4.450;2022-08-19T13:47:47;30.50;7.70
25937;DHT22;13733;51.178;4.450;2022-08-19T13:50:16;30.40;99.90
25937;DHT22;13733;51.178;4.450;2022-08-19T13:52:43;30.80;28.70
25937;DHT22;13733;51.178;4.450;2022-08-19T13:55:10;32.40;99.90
25937;DHT22;13733;51.178;4.450;2022-08-19T13:57:37;33.30;55.90
25937;DHT22;13733;51.178;4.450;2022-08-19T14:00:07;32.70;99.90
25937;DHT22;13733;51.178;4.450;2022-08-19T14:02:37;31.40;1.00
25937;DHT22;13733;51.178;4.450;2022-08-19T14:05:07;32.10;84.90
25937;DHT22;13733;51.178;4.450;2022-08-19T14:07:34;33.10;99.90
25937;DHT22;13733;51.178;4.450;2022-08-19T14:10:00;33.90;1.00
25937;DHT22;13733;51.178;4.450;2022-08-19T14:12:25;34.00;1.00
25937;DHT22;13733;51.178;4.450;2022-08-19T14:14:51;33.20;1.00
25937;DHT22;13733;51.178;4.450;2022-08-19T14:17:17;32.30;1.00
25937;DHT22;13733;51.178;4.450;2022-08-19T14:19:43;31.60;99.90
25937;DHT22;13733;51.178;4.450;2022-08-19T14:22:08;30.60;99.90
25937;DHT22;13733;51.178;4.450;2022-08-19T14:24:36;30.00;99.90
25937;DHT22;13733;51.178;4.450;2022-08-19T14:27:02;29.70;28.00
25937;DHT22;13733;51.178;4.450;2022-08-19T14:29:28;29.70;1.00
25937;DHT22;13733;51.178;4.450;2022-08-19T14:31:55;28.90;99.90
25937;DHT22;13733;51.178;4.450;2022-08-19T14:34:25;28.60;99.90
25937;DHT22;13733;51.178;4.450;2022-08-19T14:36:52;28.20;1.00
25937;DHT22;13733;51.178;4.450;2022-08-19T14:39:18;27.50;99.90
25937;DHT22;13733;51.178;4.450;2022-08-19T14:41:44;27.20;99.90
25937;DHT22;13733;51.178;4.450;2022-08-19T14:44:11;26.90;99.90
25937;DHT22;13733;51.178;4.450;2022-08-19T14:46:38;26.70;99.90
25937;DHT22;13733;51.178;4.450;2022-08-19T14:49:06;26.50;1.00
25937;DHT22;13733;51.178;4.450;2022-08-19T14:51:32;26.20;1.00
25937;DHT22;13733;51.178;4.450;2022-08-19T14:53:58;25.90;1.00
25937;DHT22;13733;51.178;4.450;2022-08-19T14:56:27;25.30;1.00
25937;DHT22;13733;51.178;4.450;2022-08-19T14:58:53;24.30;1.00
25937;DHT22;13733;51.178;4.450;2022-08-19T15:01:21;23.40;33.40
25937;DHT22;13733;51.178;4.450;2022-08-19T15:03:48;23.00;53.90
25937;DHT22;13733;51.178;4.450;2022-08-19T15:06:15;22.60;62.60
25937;DHT22;13733;51.178;4.450;2022-08-19T15:08:42;22.20;76.80
25937;DHT22;13733;51.178;4.450;2022-08-19T15:11:12;22.00;84.70
25937;DHT22;13733;51.178;4.450;2022-08-19T15:13:40;21.80;87.30
25937;DHT22;13733;51.178;4.450;2022-08-19T15:16:07;21.70;90.30
25937;DHT22;13733;51.178;4.450;2022-08-19T15:18:33;21.70;92.50
25937;DHT22;13733;51.178;4.450;2022-08-19T15:21:00;21.70;92.90
25937;DHT22;13733;51.178;4.450;2022-08-19T15:23:27;21.70;93.50
25937;DHT22;13733;51.178;4.450;2022-08-19T15:25:53;21.80;93.70
25937;DHT22;13733;51.178;4.450;2022-08-19T15:28:25;21.90;93.60
25937;DHT22;13733;51.178;4.450;2022-08-19T15:30:51;22.00;92.80
25937;DHT22;13733;51.178;4.450;2022-08-19T15:33:18;22.30;90.80
25937;DHT22;13733;51.178;4.450;2022-08-19T15:35:46;22.50;90.60
25937;DHT22;13733;51.178;4.450;2022-08-19T15:38:12;22.90;90.70
25937;DHT22;13733;51.178;4.450;2022-08-19T15:40:38;24.10;78.60
25937;DHT22;13733;51.178;4.450;2022-08-19T15:43:04;25.10;62.30
25937;DHT22;13733;51.178;4.450;2022-08-19T15:45:31;25.40;44.80
25937;DHT22;13733;51.178;4.450;2022-08-19T15:48:02;25.60;40.60